Terminal Aerodrome Forecast
Issued by NWS Cleveland, OH

Home | Current Version | Previous Version | Text Only | Print | Product List | Glossary Off
Versions: 1 2 3 4 5 6 7 8 9 10 11 12 13 14 15 16 17 18 19 20 21 22 23 24 25 26

000
FTUS41 KCLE 141728
TAFCLE
TAF
KCLE 141728Z 1418/1524 18005KT P6SM SCT035
      TEMPO 1418/1421 BKN035
     FM142200 14004KT P6SM SCT250
     FM151400 14007KT P6SM -SN OVC050
     FM151700 15009KT 5SM -SN OVC025
     FM151900 16009KT 1 1/2SM -SN OVC015=

USA.gov is the U.S. government's official web portal to all federal, state and local government web resources and services.